Time;durP1;ratioP1;P1;durP2;ratioP2;P2;SDS_P1;SDS_P2;PMS_P1;PMS_P2;Temp;Humidity;BMP_temperature;BMP_pressure;BME280_temperature;BME280_humidity;BME280_pressure;Samples;Min_cycle;Max_cycle;Signal;HPM_P1;HPM_P2
2022/07/03 00:00:30;;;;;;;3.50;1.17;;;18.90;97.30;;;;;;5121898;27;20581;-79
2022/07/03 00:02:56;;;;;;;2.80;1.30;;;18.80;97.30;;;;;;5121559;27;20047;-79
2022/07/03 00:05:22;;;;;;;2.10;1.10;;;18.80;97.40;;;;;;5122889;27;20087;-80
2022/07/03 00:07:48;;;;;;;5.07;1.45;;;18.80;97.40;;;;;;5124640;27;21097;-80
2022/07/03 00:10:14;;;;;;;2.75;1.15;;;18.80;97.50;;;;;;5121758;27;20051;-80
2022/07/03 00:12:40;;;;;;;5.78;2.25;;;18.70;97.50;;;;;;5123399;27;20138;-80
2022/07/03 00:15:06;;;;;;;2.95;1.40;;;18.70;97.60;;;;;;5123638;27;20027;-80
2022/07/03 00:17:32;;;;;;;5.30;0.90;;;18.70;97.70;;;;;;5123966;27;20036;-80
2022/07/03 00:19:58;;;;;;;2.67;1.15;;;18.60;97.70;;;;;;5107273;27;20043;-80
2022/07/03 00:22:26;;;;;;;3.30;1.15;;;18.70;97.80;;;;;;5120573;27;20047;-79
2022/07/03 00:24:56;;;;;;;2.17;1.20;;;18.70;97.80;;;;;;5124329;27;20516;-80
2022/07/03 00:27:24;;;;;;;3.45;2.08;;;18.70;97.80;;;;;;5123051;27;20040;-79
2022/07/03 00:29:52;;;;;;;4.50;1.35;;;18.60;97.90;;;;;;5123715;27;20039;-79
2022/07/03 00:32:28;;;;;;;2.35;1.48;;;18.60;97.90;;;;;;5123673;27;20130;-79
2022/07/03 00:34:55;;;;;;;2.17;1.67;;;18.60;98.00;;;;;;5122120;27;20532;-80
2022/07/03 00:37:22;;;;;;;2.13;1.85;;;18.50;98.00;;;;;;5120813;27;20044;-79
2022/07/03 00:39:48;;;;;;;3.63;1.10;;;18.50;98.00;;;;;;5126312;27;20039;-79
2022/07/03 00:42:15;;;;;;;3.80;1.27;;;18.50;98.10;;;;;;5123268;27;20596;-79
2022/07/03 00:44:50;;;;;;;2.22;1.10;;;18.50;98.10;;;;;;5122938;27;20108;-79
2022/07/03 00:47:19;;;;;;;3.78;1.45;;;18.50;98.20;;;;;;5118955;27;20709;-79
2022/07/03 00:49:49;;;;;;;3.30;1.38;;;18.50;98.20;;;;;;5122089;27;20047;-79
2022/07/03 00:52:19;;;;;;;4.15;1.42;;;18.40;98.20;;;;;;5124891;27;20039;-80
2022/07/03 00:54:55;;;;;;;4.15;1.10;;;18.40;98.30;;;;;;5120974;27;20140;-80
2022/07/03 00:57:23;;;;;;;2.60;1.48;;;18.40;98.30;;;;;;5107425;27;20439;-80
2022/07/03 00:59:49;;;;;;;4.00;1.27;;;18.30;98.50;;;;;;5122450;27;20046;-80
2022/07/03 01:02:30;;;;;;;5.55;1.80;;;18.20;98.40;;;;;;5105776;27;20039;-80
2022/07/03 01:05:15;;;;;;;2.25;1.77;;;18.20;98.40;;;;;;5120645;27;20101;-80
2022/07/03 01:07:47;;;;;;;5.03;1.23;;;18.20;98.50;;;;;;5122146;27;20036;-80
2022/07/03 01:10:31;;;;;;;;;;;18.20;98.50;;;;;;5107861;27;20043;-80
2022/07/03 01:13:09;;;;;;;1.58;0.95;;;18.20;98.50;;;;;;5124617;27;19923;-80
2022/07/03 01:15:47;;;;;;;1.95;1.13;;;18.10;98.50;;;;;;5125805;27;20039;-80
2022/07/03 01:18:36;;;;;;;3.72;1.42;;;18.00;98.60;;;;;;5123858;27;20047;-80
2022/07/03 01:21:08;;;;;;;5.28;1.27;;;18.00;98.60;;;;;;5123955;27;21277;-80
2022/07/03 01:23:56;;;;;;;1.70;1.13;;;18.00;98.60;;;;;;5121293;27;20043;-80
2022/07/03 01:26:27;;;;;;;7.13;1.30;;;18.00;98.70;;;;;;5120704;27;20134;-79
2022/07/03 01:28:52;;;;;;;2.70;1.50;;;17.90;98.70;;;;;;5120717;27;20043;-80
2022/07/03 01:31:20;;;;;;;2.95;1.08;;;18.00;98.70;;;;;;5118583;27;20528;-80
2022/07/03 01:33:49;;;;;;;2.00;1.60;;;17.90;98.80;;;;;;5123308;27;20040;-80
2022/07/03 01:36:17;;;;;;;3.25;1.67;;;17.90;98.80;;;;;;5121201;27;20533;-80
2022/07/03 01:38:43;;;;;;;3.38;1.40;;;17.90;98.90;;;;;;5121592;27;20031;-80
2022/07/03 01:41:10;;;;;;;2.33;1.55;;;17.80;98.90;;;;;;5121151;27;20047;-79
2022/07/03 01:43:46;;;;;;;1.83;1.25;;;17.80;98.90;;;;;;5123417;27;20052;-80
2022/07/03 01:46:14;;;;;;;1.63;0.93;;;17.80;99.00;;;;;;5105875;27;20035;-80
2022/07/03 01:48:43;;;;;;;2.42;1.10;;;17.80;99.00;;;;;;5123307;27;20170;-80
2022/07/03 01:51:13;;;;;;;3.83;1.30;;;17.80;99.10;;;;;;5121645;27;20176;-80
2022/07/03 01:53:44;;;;;;;6.43;1.35;;;17.70;99.10;;;;;;5104438;27;20074;-80
2022/07/03 01:56:11;;;;;;;2.03;1.05;;;17.80;99.20;;;;;;5103888;27;20047;-80
2022/07/03 01:58:37;;;;;;;2.85;1.30;;;17.70;99.20;;;;;;5120363;27;20099;-79
2022/07/03 02:01:22;;;;;;;3.33;1.55;;;17.70;99.20;;;;;;5123191;27;20047;-80
2022/07/03 02:04:11;;;;;;;4.53;1.42;;;17.70;99.30;;;;;;5116692;27;20043;-80
2022/07/03 02:06:43;;;;;;;3.15;1.70;;;17.70;99.30;;;;;;5117569;27;20077;-80
2022/07/03 02:09:11;;;;;;;3.15;1.95;;;17.70;99.40;;;;;;5120236;27;20032;-80
2022/07/03 02:11:44;;;;;;;3.08;1.35;;;17.60;99.40;;;;;;5117680;27;20096;-80
2022/07/03 02:14:32;;;;;;;2.67;1.20;;;17.60;99.40;;;;;;5120082;27;20071;-80
2022/07/03 02:17:20;;;;;;;3.40;1.08;;;17.60;99.50;;;;;;5120794;27;20532;-80
2022/07/03 02:20:07;;;;;;;2.03;1.30;;;17.60;99.60;;;;;;5119915;27;20051;-79
2022/07/03 02:22:40;;;;;;;7.13;1.73;;;17.60;99.60;;;;;;5121506;27;20168;-80
2022/07/03 02:25:18;;;;;;;3.72;1.20;;;17.50;99.70;;;;;;5121124;27;20094;-80
2022/07/03 02:27:51;;;;;;;1.83;1.30;;;17.50;99.70;;;;;;5122082;27;20491;-80
2022/07/03 02:30:17;;;;;;;3.28;1.33;;;17.50;99.80;;;;;;5119095;27;20081;-80
2022/07/03 02:32:49;;;;;;;2.97;1.38;;;17.50;99.80;;;;;;5119687;27;20066;-80
2022/07/03 02:35:32;;;;;;;2.08;1.48;;;17.40;99.90;;;;;;5119492;27;20129;-80
2022/07/03 02:38:26;;;;;;;2.38;1.23;;;17.40;99.90;;;;;;5121312;27;20082;-80
2022/07/03 02:41:21;;;;;;;1.55;1.00;;;17.40;99.90;;;;;;5117348;27;20080;-80
2022/07/03 02:43:47;;;;;;;3.60;1.25;;;17.30;99.90;;;;;;5112160;27;20670;-80
2022/07/03 02:46:49;;;;;;;4.38;2.17;;;17.30;99.90;;;;;;5119459;27;20136;-80
2022/07/03 02:49:30;;;;;;;3.28;1.20;;;17.30;99.90;;;;;;5122748;27;20096;-80
2022/07/03 02:52:37;;;;;;;2.58;1.20;;;17.20;99.90;;;;;;5117803;27;20054;-80
2022/07/03 02:55:20;;;;;;;2.17;1.50;;;17.10;99.90;;;;;;5119809;27;20238;-80
2022/07/03 02:57:57;;;;;;;1.48;0.95;;;17.10;99.90;;;;;;5120612;27;20048;-80
2022/07/03 03:00:24;;;;;;;3.00;1.58;;;17.10;99.90;;;;;;5119391;27;20036;-80
2022/07/03 03:02:55;;;;;;;3.25;1.17;;;17.10;99.90;;;;;;5128439;27;20043;-80
2022/07/03 03:05:21;;;;;;;3.40;1.10;;;17.10;99.90;;;;;;5124054;27;20056;-80
2022/07/03 03:08:15;;;;;;;5.50;1.65;;;17.10;99.90;;;;;;5123000;27;20036;-80
2022/07/03 03:10:43;;;;;;;2.75;1.30;;;17.00;99.90;;;;;;5121166;27;20031;-80
2022/07/03 03:13:11;;;;;;;3.67;1.38;;;17.00;99.90;;;;;;5122529;27;20035;-80
2022/07/03 03:15:39;;;;;;;2.38;1.00;;;17.00;99.90;;;;;;5121261;27;20055;-81
2022/07/03 03:18:12;;;;;;;4.07;1.42;;;17.00;99.90;;;;;;5121518;27;20035;-80
2022/07/03 03:20:39;;;;;;;1.55;1.08;;;17.00;99.90;;;;;;5126667;27;20117;-80
2022/07/03 03:23:23;;;;;;;2.65;1.50;;;17.00;99.90;;;;;;5123876;27;20036;-80
2022/07/03 03:25:52;;;;;;;5.97;1.35;;;17.00;99.90;;;;;;5124148;27;20528;-80
2022/07/03 03:28:18;;;;;;;1.80;1.30;;;16.90;99.90;;;;;;5123766;27;20036;-80
2022/07/03 03:30:44;;;;;;;1.83;1.23;;;17.00;99.90;;;;;;5124578;27;20035;-80
2022/07/03 03:33:11;;;;;;;2.33;1.10;;;16.80;99.90;;;;;;5123846;27;20047;-80
2022/07/03 03:35:38;;;;;;;2.47;1.40;;;16.80;99.90;;;;;;5126373;27;20078;-80
2022/07/03 03:38:04;;;;;;;2.85;1.20;;;16.80;99.90;;;;;;5126965;27;20032;-79
2022/07/03 03:40:32;;;;;;;1.70;1.00;;;16.90;99.90;;;;;;5126141;27;20535;-80
2022/07/03 03:42:57;;;;;;;4.78;1.20;;;16.80;99.90;;;;;;5125839;27;20088;-79
2022/07/03 03:45:23;;;;;;;1.92;1.30;;;16.80;99.90;;;;;;5125704;27;20043;-80
2022/07/03 03:47:49;;;;;;;2.15;1.10;;;16.80;99.90;;;;;;5129136;27;20039;-80
2022/07/03 03:50:15;;;;;;;1.75;1.35;;;16.70;99.90;;;;;;5114548;27;20048;-80
2022/07/03 03:52:41;;;;;;;1.85;1.50;;;16.70;99.90;;;;;;5130827;27;20036;-80
2022/07/03 03:55:09;;;;;;;2.03;1.15;;;16.70;99.90;;;;;;5127969;27;20039;-80
2022/07/03 03:57:36;;;;;;;2.63;1.02;;;16.70;99.90;;;;;;5130093;27;20044;-80
2022/07/03 04:00:02;;;;;;;3.45;1.10;;;16.70;99.90;;;;;;5131556;27;20061;-81
2022/07/03 04:02:28;;;;;;;1.98;1.20;;;16.60;99.90;;;;;;5131265;27;20115;-80
2022/07/03 04:04:54;;;;;;;1.88;1.15;;;16.70;99.90;;;;;;5147277;27;20542;-80
2022/07/03 04:07:20;;;;;;;3.58;1.50;;;16.60;99.90;;;;;;5125657;27;20065;-80
2022/07/03 04:09:46;;;;;;;2.08;1.23;;;16.60;99.90;;;;;;5132077;27;20100;-81
2022/07/03 04:12:12;;;;;;;2.13;1.30;;;16.60;99.90;;;;;;5128200;27;20039;-80
2022/07/03 04:14:38;;;;;;;4.15;1.55;;;16.60;99.90;;;;;;5124038;27;21216;-81
2022/07/03 04:17:04;;;;;;;1.77;1.20;;;16.60;99.90;;;;;;5121792;27;20055;-80
2022/07/03 04:19:30;;;;;;;2.80;1.30;;;16.60;99.90;;;;;;5102368;27;20028;-80
2022/07/03 04:21:56;;;;;;;3.33;1.40;;;16.60;99.90;;;;;;5124346;27;20536;-80
2022/07/03 04:24:22;;;;;;;4.68;1.70;;;16.60;99.90;;;;;;5122611;27;20671;-80
2022/07/03 04:26:48;;;;;;;2.38;1.30;;;16.60;99.90;;;;;;5123562;27;20031;-80
2022/07/03 04:29:13;;;;;;;2.15;1.60;;;16.60;99.90;;;;;;5120318;27;20051;-80
2022/07/03 04:31:39;;;;;;;2.83;1.52;;;16.60;99.90;;;;;;5122953;27;20047;-80
2022/07/03 04:34:05;;;;;;;3.83;1.30;;;16.50;99.90;;;;;;5121545;27;20359;-81
2022/07/03 04:36:30;;;;;;;2.85;1.48;;;16.50;99.90;;;;;;5124745;27;20086;-80
2022/07/03 04:38:56;;;;;;;4.18;1.42;;;16.50;99.90;;;;;;5120602;27;20039;-80
2022/07/03 04:41:22;;;;;;;1.83;1.58;;;16.40;99.90;;;;;;5121527;27;20032;-80
2022/07/03 04:43:48;;;;;;;3.38;2.35;;;16.50;99.90;;;;;;5121563;27;20108;-80
2022/07/03 04:46:14;;;;;;;2.60;1.67;;;16.40;99.90;;;;;;5122032;27;20393;-80
2022/07/03 04:48:39;;;;;;;4.30;1.70;;;16.40;99.90;;;;;;5118334;27;20050;-79
2022/07/03 04:51:05;;;;;;;2.60;1.73;;;16.40;99.90;;;;;;5122264;27;20064;-79
2022/07/03 04:53:31;;;;;;;2.50;1.17;;;16.40;99.90;;;;;;5125681;27;20552;-79
2022/07/03 04:55:56;;;;;;;2.58;1.17;;;16.40;99.90;;;;;;5119934;27;20616;-79
2022/07/03 04:58:22;;;;;;;5.57;1.55;;;16.40;99.90;;;;;;5120785;27;20096;-80
2022/07/03 05:00:48;;;;;;;4.47;1.60;;;16.30;99.90;;;;;;5122325;27;20536;-80
2022/07/03 05:03:14;;;;;;;3.30;1.50;;;16.30;99.90;;;;;;5123882;27;20114;-80
2022/07/03 05:05:40;;;;;;;3.15;1.38;;;16.40;99.90;;;;;;5121393;27;20591;-80
2022/07/03 05:08:06;;;;;;;3.20;1.58;;;16.40;99.90;;;;;;5137814;27;20070;-80
2022/07/03 05:10:32;;;;;;;2.78;1.58;;;16.30;99.90;;;;;;5121490;27;20039;-80
2022/07/03 05:12:57;;;;;;;2.38;1.67;;;16.40;99.90;;;;;;5123095;27;20130;-80
2022/07/03 05:15:23;;;;;;;3.20;1.27;;;16.40;99.90;;;;;;5118276;27;20578;-80
2022/07/03 05:17:49;;;;;;;4.55;1.40;;;16.40;99.90;;;;;;5120969;27;20599;-80
2022/07/03 05:20:24;;;;;;;3.47;1.95;;;16.30;99.90;;;;;;5119816;27;20042;-80
2022/07/03 05:22:51;;;;;;;2.33;1.33;;;16.30;99.90;;;;;;5124481;27;20040;-80
2022/07/03 05:25:17;;;;;;;3.53;1.40;;;16.30;99.90;;;;;;5139786;27;20039;-80
2022/07/03 05:27:43;;;;;;;1.77;1.10;;;16.40;99.90;;;;;;5123981;27;20054;-81
2022/07/03 05:30:10;;;;;;;1.73;1.30;;;16.40;99.90;;;;;;5119391;27;20797;-80
2022/07/03 05:32:35;;;;;;;5.25;1.45;;;16.40;99.90;;;;;;5120588;27;20517;-80
2022/07/03 05:35:01;;;;;;;2.20;1.23;;;16.40;99.90;;;;;;5121171;27;20077;-80
2022/07/03 05:37:27;;;;;;;4.63;1.65;;;16.40;99.90;;;;;;5122125;27;20133;-80
2022/07/03 05:39:53;;;;;;;1.55;1.30;;;16.50;99.90;;;;;;5123022;27;20532;-80
2022/07/03 05:42:19;;;;;;;2.63;1.70;;;16.50;99.90;;;;;;5116545;27;20039;-80
2022/07/03 05:44:45;;;;;;;2.42;1.38;;;16.50;99.90;;;;;;5105083;27;20564;-81
2022/07/03 05:47:11;;;;;;;3.80;1.40;;;16.50;99.90;;;;;;5123216;27;20154;-80
2022/07/03 05:49:37;;;;;;;3.08;1.88;;;16.50;99.90;;;;;;5123444;27;20042;-81
2022/07/03 05:52:03;;;;;;;3.10;1.73;;;16.50;99.90;;;;;;5121567;27;20039;-80
2022/07/03 05:54:28;;;;;;;2.40;1.75;;;16.70;99.90;;;;;;5121471;27;20046;-80
2022/07/03 05:56:54;;;;;;;4.50;1.63;;;16.50;99.90;;;;;;5119893;27;20128;-80
2022/07/03 05:59:20;;;;;;;3.67;1.40;;;16.50;99.90;;;;;;5120008;27;20667;-80
2022/07/03 06:01:46;;;;;;;1.90;1.55;;;16.50;99.90;;;;;;5120016;27;20146;-80
2022/07/03 06:04:12;;;;;;;2.55;1.45;;;16.50;99.90;;;;;;5122500;27;20522;-80
2022/07/03 06:06:37;;;;;;;2.65;1.02;;;16.60;99.90;;;;;;5124370;27;20062;-80
2022/07/03 06:09:03;;;;;;;2.70;1.50;;;16.60;99.90;;;;;;5123443;27;20543;-81
2022/07/03 06:11:29;;;;;;;5.00;1.55;;;16.60;99.90;;;;;;5123073;27;20047;-81
2022/07/03 06:13:55;;;;;;;1.83;1.15;;;16.60;99.90;;;;;;5120527;27;20619;-80
2022/07/03 06:16:21;;;;;;;3.65;1.20;;;16.60;99.90;;;;;;5121797;27;20162;-80
2022/07/03 06:18:47;;;;;;;2.70;1.92;;;16.70;99.90;;;;;;5124484;27;20042;-81
2022/07/03 06:21:13;;;;;;;4.65;1.40;;;16.70;99.90;;;;;;5125179;27;20127;-80
2022/07/03 06:23:39;;;;;;;1.48;0.50;;;16.70;99.90;;;;;;5119753;27;20476;-79
2022/07/03 06:26:05;;;;;;;1.00;0.77;;;16.80;99.90;;;;;;5121889;27;20035;-79
2022/07/03 06:28:31;;;;;;;2.35;1.02;;;16.80;99.90;;;;;;5120955;27;20043;-80
2022/07/03 06:30:56;;;;;;;2.22;1.10;;;16.70;99.90;;;;;;5119129;27;20534;-81
2022/07/03 06:33:22;;;;;;;1.88;1.05;;;16.70;99.90;;;;;;5117655;27;20050;-80
2022/07/03 06:35:48;;;;;;;2.47;1.23;;;16.80;99.90;;;;;;5120885;27;20090;-79
2022/07/03 06:38:14;;;;;;;5.13;1.20;;;16.80;99.90;;;;;;5121288;27;20456;-80
2022/07/03 06:40:39;;;;;;;1.60;0.93;;;16.80;99.90;;;;;;5123417;27;20044;-80
2022/07/03 06:43:05;;;;;;;3.67;1.33;;;16.90;99.90;;;;;;5121714;27;20468;-81
2022/07/03 06:45:31;;;;;;;2.53;1.88;;;16.90;99.90;;;;;;5121940;27;20040;-81
2022/07/03 06:47:57;;;;;;;2.30;1.35;;;16.90;99.90;;;;;;5118191;27;20042;-80
2022/07/03 06:50:22;;;;;;;2.40;0.77;;;17.00;99.90;;;;;;5120612;27;20088;-80
2022/07/03 06:52:48;;;;;;;1.83;1.10;;;17.00;99.90;;;;;;5122693;27;20078;-82
2022/07/03 06:55:14;;;;;;;2.35;1.65;;;17.00;99.90;;;;;;5124084;27;20423;-80
2022/07/03 06:57:40;;;;;;;2.92;1.13;;;17.10;99.90;;;;;;5123025;27;20043;-81
2022/07/03 07:00:07;;;;;;;2.33;1.38;;;17.10;99.90;;;;;;5105294;27;20039;-81
2022/07/03 07:02:32;;;;;;;3.15;1.02;;;17.10;99.90;;;;;;5135746;27;20075;-80
2022/07/03 07:04:58;;;;;;;1.73;1.10;;;17.20;99.90;;;;;;5121451;27;20047;-80
2022/07/03 07:07:24;;;;;;;1.77;1.17;;;17.20;99.90;;;;;;5119767;27;20504;-81
2022/07/03 07:09:50;;;;;;;0.90;0.70;;;17.20;99.90;;;;;;5121405;27;20421;-81
2022/07/03 07:12:16;;;;;;;2.85;1.02;;;17.20;99.90;;;;;;5119262;27;20071;-82
2022/07/03 07:14:42;;;;;;;1.95;0.80;;;17.20;99.90;;;;;;5119587;27;20477;-82
2022/07/03 07:17:08;;;;;;;3.03;1.13;;;17.30;99.90;;;;;;5120212;27;20564;-82
2022/07/03 07:19:34;;;;;;;1.50;0.85;;;17.40;99.90;;;;;;5120872;27;20040;-82
2022/07/03 07:22:01;;;;;;;1.20;0.90;;;17.50;99.90;;;;;;5120217;27;20047;-81
2022/07/03 07:24:28;;;;;;;1.00;0.90;;;17.50;99.90;;;;;;5116252;27;20106;-82
2022/07/03 07:26:54;;;;;;;2.17;1.25;;;17.50;99.90;;;;;;5119557;27;20806;-82
2022/07/03 07:29:19;;;;;;;1.60;1.35;;;17.60;99.90;;;;;;5105535;27;20044;-82
2022/07/03 07:31:45;;;;;;;3.65;1.58;;;17.50;99.90;;;;;;5120775;27;20051;-82
2022/07/03 07:34:11;;;;;;;1.88;1.20;;;17.50;99.90;;;;;;5122016;27;20525;-82
2022/07/03 07:36:37;;;;;;;1.75;1.00;;;17.60;99.90;;;;;;5119066;27;20039;-82
2022/07/03 07:39:03;;;;;;;1.83;1.20;;;17.50;99.90;;;;;;5120364;27;20036;-81
2022/07/03 07:41:29;;;;;;;1.88;1.42;;;17.50;99.90;;;;;;5117536;27;20043;-80
2022/07/03 07:43:54;;;;;;;1.67;0.73;;;17.60;99.90;;;;;;5117778;27;20032;-84
2022/07/03 07:46:20;;;;;;;1.27;0.80;;;17.60;99.90;;;;;;5115219;27;20039;-80
2022/07/03 07:48:46;;;;;;;1.80;0.82;;;17.60;99.90;;;;;;5118442;27;20576;-81
2022/07/03 07:51:12;;;;;;;2.92;1.95;;;17.60;99.90;;;;;;5119994;27;20048;-80
2022/07/03 07:53:37;;;;;;;1.30;0.80;;;17.60;99.90;;;;;;5117515;27;20148;-80
2022/07/03 07:56:03;;;;;;;2.70;1.70;;;17.70;99.90;;;;;;5101857;27;20050;-79
2022/07/03 07:58:29;;;;;;;1.52;0.80;;;17.70;99.90;;;;;;5118153;27;20051;-79
2022/07/03 08:06:24;;;;;;;5.75;0.80;;;17.70;99.90;;;;;;5124211;27;20124;-79
2022/07/03 08:08:50;;;;;;;1.90;1.10;;;17.80;99.90;;;;;;5124504;27;20035;-79
2022/07/03 08:11:16;;;;;;;2.88;0.90;;;17.80;99.90;;;;;;5125123;27;20043;-79
2022/07/03 08:13:42;;;;;;;2.35;1.42;;;17.70;99.90;;;;;;5120768;27;20062;-78
2022/07/03 08:16:07;;;;;;;1.65;1.02;;;17.90;99.90;;;;;;5118276;27;20417;-80
2022/07/03 08:18:33;;;;;;;2.58;1.20;;;18.00;99.90;;;;;;5106673;27;20217;-81
2022/07/03 08:20:59;;;;;;;1.30;1.00;;;18.10;99.90;;;;;;5121586;27;20043;-81
2022/07/03 08:23:26;;;;;;;1.92;0.98;;;18.40;99.90;;;;;;5122849;27;20050;-80
2022/07/03 08:25:51;;;;;;;1.05;0.77;;;18.50;99.90;;;;;;5120790;27;20032;-79
2022/07/03 08:28:17;;;;;;;1.80;0.80;;;18.60;99.90;;;;;;5118434;27;20040;-80
2022/07/03 08:30:44;;;;;;;0.63;0.60;;;18.70;99.90;;;;;;5120198;27;20415;-80
2022/07/03 08:33:09;;;;;;;2.20;0.77;;;18.60;99.90;;;;;;5122721;27;20069;-79
2022/07/03 08:35:35;;;;;;;1.60;1.02;;;18.60;99.90;;;;;;5120414;27;20038;-79
2022/07/03 08:38:01;;;;;;;0.95;0.70;;;18.50;99.90;;;;;;5123509;27;20043;-80
2022/07/03 08:40:27;;;;;;;1.65;0.70;;;18.50;99.90;;;;;;5123044;27;20111;-80
2022/07/03 08:42:55;;;;;;;3.75;0.90;;;18.50;99.90;;;;;;5119608;27;20052;-80
2022/07/03 08:45:22;;;;;;;1.60;1.13;;;18.50;99.90;;;;;;5120511;27;21104;-79
2022/07/03 08:47:49;;;;;;;2.95;1.10;;;18.60;99.90;;;;;;5123668;27;20645;-80
2022/07/03 08:50:17;;;;;;;2.05;0.88;;;18.60;99.90;;;;;;5123010;27;20182;-80
2022/07/03 08:52:44;;;;;;;2.47;0.95;;;18.60;99.90;;;;;;5122950;27;20038;-81
2022/07/03 08:55:13;;;;;;;1.67;1.20;;;18.70;99.90;;;;;;5124258;27;20495;-81
2022/07/03 08:57:42;;;;;;;0.75;0.57;;;18.70;99.90;;;;;;5141537;27;20921;-80
2022/07/03 09:00:11;;;;;;;1.73;1.13;;;18.70;99.90;;;;;;5122691;27;20126;-80
2022/07/03 09:02:40;;;;;;;1.15;0.77;;;18.70;99.90;;;;;;5123343;27;20093;-80
2022/07/03 09:05:07;;;;;;;0.95;0.73;;;18.70;99.90;;;;;;5118382;27;20043;-80
2022/07/03 09:07:38;;;;;;;2.05;0.90;;;18.80;99.90;;;;;;5122432;27;20362;-80
2022/07/03 09:10:06;;;;;;;1.13;0.93;;;18.90;99.90;;;;;;5122808;27;20060;-80
2022/07/03 09:12:32;;;;;;;2.30;0.70;;;19.00;99.90;;;;;;5119783;27;21059;-79
2022/07/03 09:15:04;;;;;;;1.25;0.75;;;19.10;99.90;;;;;;5125026;27;20046;-81
2022/07/03 09:17:30;;;;;;;;;;;19.30;99.90;;;;;;5126314;27;20046;-80
2022/07/03 09:19:59;;;;;;;3.15;0.80;;;19.30;99.90;;;;;;5126188;27;20716;-78
2022/07/03 09:22:31;;;;;;;1.67;0.85;;;19.30;99.90;;;;;;5125549;27;20036;-79
2022/07/03 09:25:10;;;;;;;2.25;0.98;;;19.30;99.90;;;;;;5126327;27;20036;-81
2022/07/03 09:27:38;;;;;;;1.13;0.85;;;19.40;99.90;;;;;;5126080;27;20039;-80
2022/07/03 09:30:05;;;;;;;1.30;1.15;;;19.60;99.90;;;;;;5120704;27;20184;-81
2022/07/03 09:32:37;;;;;;;2.78;0.82;;;19.80;99.90;;;;;;5123946;27;20044;-81
2022/07/03 09:35:20;;;;;;;2.92;0.88;;;20.20;99.90;;;;;;5124453;27;20039;-81
2022/07/03 09:37:54;;;;;;;1.70;0.90;;;20.40;99.90;;;;;;5107669;27;20120;-81
2022/07/03 09:40:21;;;;;;;4.25;1.08;;;20.60;99.90;;;;;;5124043;27;20150;-81
2022/07/03 09:43:00;;;;;;;0.88;0.75;;;20.60;99.90;;;;;;5122780;27;20050;-81
2022/07/03 09:45:27;;;;;;;1.42;0.77;;;20.70;99.90;;;;;;5119664;27;20071;-82
2022/07/03 09:47:52;;;;;;;2.95;0.90;;;20.70;99.90;;;;;;5123739;27;20047;-81
2022/07/03 09:50:18;;;;;;;2.45;0.82;;;20.80;99.90;;;;;;5126292;27;20047;-81
2022/07/03 09:52:46;;;;;;;2.42;0.90;;;20.80;99.90;;;;;;5126334;27;20047;-81
2022/07/03 09:55:11;;;;;;;4.68;1.17;;;20.80;99.90;;;;;;5120478;27;20123;-83
2022/07/03 09:57:42;;;;;;;2.10;0.65;;;20.90;99.90;;;;;;5106804;27;20466;-80
2022/07/03 10:00:22;;;;;;;1.35;0.88;;;21.00;99.90;;;;;;5126543;27;20493;-86
2022/07/03 10:02:52;;;;;;;3.13;1.20;;;21.00;99.90;;;;;;5124801;27;20043;-85
2022/07/03 10:05:18;;;;;;;2.33;1.35;;;21.10;99.90;;;;;;5128382;27;20071;-86
2022/07/03 10:07:52;;;;;;;2.92;1.23;;;21.00;99.90;;;;;;5131191;27;20039;-85
2022/07/03 10:10:20;;;;;;;1.92;1.05;;;20.90;99.90;;;;;;5130713;27;20078;-81
2022/07/03 10:12:52;;;;;;;2.25;1.65;;;20.90;99.90;;;;;;5141369;27;20035;-81
2022/07/03 10:15:20;;;;;;;1.05;0.90;;;20.80;99.90;;;;;;5119964;27;20056;-81
2022/07/03 10:17:49;;;;;;;1.65;1.00;;;20.80;99.90;;;;;;5124899;27;20039;-82
2022/07/03 10:20:24;;;;;;;1.58;0.80;;;20.90;99.90;;;;;;5128670;27;20051;-81
2022/07/03 10:22:52;;;;;;;1.95;0.98;;;21.10;99.90;;;;;;5141432;27;20112;-81
2022/07/03 10:25:18;;;;;;;1.55;0.82;;;21.30;99.90;;;;;;5125627;27;20068;-81
2022/07/03 10:27:47;;;;;;;2.67;1.40;;;21.30;99.90;;;;;;5117294;27;20051;-81
2022/07/03 10:30:19;;;;;;;2.03;0.80;;;21.30;99.90;;;;;;5120512;27;20535;-79
2022/07/03 10:32:47;;;;;;;1.85;0.70;;;21.20;99.90;;;;;;5119104;27;20182;-81
2022/07/03 10:35:34;;;;;;;5.63;1.00;;;21.10;99.90;;;;;;5120655;27;20058;-81
2022/07/03 10:38:03;;;;;;;1.75;1.23;;;21.00;99.90;;;;;;5119894;27;20038;-80
2022/07/03 10:46:21;;;;;;;3.63;0.80;;;20.90;99.90;;;;;;5125766;27;20069;-80
2022/07/03 10:49:08;;;;;;;0.93;0.70;;;20.90;99.90;;;;;;5121078;27;20044;-81
2022/07/03 10:51:55;;;;;;;0.70;0.70;;;20.90;99.90;;;;;;5122518;27;20100;-89
2022/07/03 10:54:38;;;;;;;2.83;1.02;;;20.80;99.70;;;;;;5138759;27;20042;-87
2022/07/03 10:57:05;;;;;;;1.00;0.85;;;20.80;99.50;;;;;;5121279;27;20039;-90
2022/07/03 10:59:45;;;;;;;1.45;1.00;;;20.70;99.40;;;;;;5123116;27;20040;-86
2022/07/03 11:02:43;;;;;;;1.17;1.00;;;20.70;99.30;;;;;;5124037;27;20909;-87
2022/07/03 11:05:18;;;;;;;1.90;0.90;;;20.70;99.20;;;;;;5124469;27;20500;-86
2022/07/03 11:07:53;;;;;;;2.47;1.92;;;20.70;99.20;;;;;;5122088;27;20552;-86
2022/07/03 11:10:18;;;;;;;1.13;0.63;;;20.70;99.30;;;;;;5119610;27;20530;-87
2022/07/03 11:12:56;;;;;;;2.15;0.90;;;20.80;99.20;;;;;;5120464;27;20043;-87
2022/07/03 11:15:31;;;;;;;0.98;0.80;;;20.70;98.90;;;;;;5120469;27;20539;-85
2022/07/03 11:18:09;;;;;;;1.88;0.90;;;20.70;98.80;;;;;;5116969;27;20978;-86
2022/07/03 11:20:37;;;;;;;3.22;1.30;;;20.70;98.80;;;;;;5121170;27;20101;-85
2022/07/03 11:23:11;;;;;;;2.50;1.23;;;20.70;98.70;;;;;;5105388;27;20044;-80
2022/07/03 11:25:48;;;;;;;4.15;2.72;;;20.80;98.80;;;;;;5121473;27;20044;-79
2022/07/03 11:28:32;;;;;;;1.67;1.13;;;20.90;98.80;;;;;;5122268;27;20044;-80
2022/07/03 11:33:51;;;;;;;1.65;1.10;;;21.40;98.50;;;;;;5123362;27;20139;-79
2022/07/03 11:36:17;;;;;;;2.90;1.63;;;21.60;98.30;;;;;;5120198;27;20043;-80
2022/07/03 11:39:05;;;;;;;2.65;1.55;;;21.80;98.20;;;;;;5118536;27;20035;-80
2022/07/03 11:41:43;;;;;;;2.20;1.38;;;21.90;97.50;;;;;;5126532;27;20039;-79
2022/07/03 11:44:10;;;;;;;2.63;1.08;;;21.70;96.90;;;;;;5126371;27;20047;-80
2022/07/03 11:46:38;;;;;;;2.08;0.68;;;21.60;96.80;;;;;;5124267;27;20043;-79
2022/07/03 11:49:15;;;;;;;1.33;1.13;;;21.40;96.60;;;;;;5125285;27;20044;-79
2022/07/03 11:51:43;;;;;;;1.10;0.73;;;21.30;96.30;;;;;;5122781;27;20098;-80
2022/07/03 11:54:09;;;;;;;1.13;0.70;;;21.20;96.30;;;;;;5120111;27;20086;-79
2022/07/03 11:56:36;;;;;;;1.25;0.73;;;21.20;96.20;;;;;;5123044;27;20042;-79
2022/07/03 11:59:04;;;;;;;1.83;1.05;;;21.20;96.00;;;;;;5122211;27;20587;-80
2022/07/03 12:01:35;;;;;;;2.80;1.42;;;21.30;95.90;;;;;;5125156;27;20044;-79
2022/07/03 12:04:14;;;;;;;2.60;1.10;;;21.40;95.90;;;;;;5124047;27;20089;-80
2022/07/03 12:06:53;;;;;;;1.85;1.15;;;21.50;95.70;;;;;;5124934;27;20047;-80
2022/07/03 12:09:33;;;;;;;1.92;0.93;;;21.60;95.60;;;;;;5125417;27;20716;-80
2022/07/03 12:12:10;;;;;;;1.45;0.77;;;21.70;95.40;;;;;;5126149;27;20039;-80
2022/07/03 12:14:49;;;;;;;2.13;0.80;;;21.60;95.20;;;;;;5126103;27;20036;-80
2022/07/03 12:17:16;;;;;;;0.50;0.50;;;21.70;95.20;;;;;;5124502;27;20981;-80
2022/07/03 12:19:50;;;;;;;2.42;1.20;;;21.70;95.10;;;;;;5128261;27;20488;-80
2022/07/03 12:22:30;;;;;;;1.45;0.70;;;21.80;94.90;;;;;;5126573;27;20335;-80
2022/07/03 12:25:08;;;;;;;1.73;0.68;;;21.80;94.70;;;;;;5127519;27;20089;-80
2022/07/03 12:27:36;;;;;;;2.00;0.57;;;21.70;94.70;;;;;;5125402;27;20459;-80
2022/07/03 12:30:03;;;;;;;0.70;0.68;;;21.70;94.60;;;;;;5127009;27;20035;-79
2022/07/03 12:32:29;;;;;;;1.13;0.75;;;21.60;94.40;;;;;;5123896;27;20833;-80
2022/07/03 12:34:55;;;;;;;1.13;0.70;;;21.60;94.30;;;;;;5124545;27;20127;-80
2022/07/03 12:37:41;;;;;;;2.28;0.75;;;21.70;94.20;;;;;;5124438;27;20050;-80
2022/07/03 12:40:08;;;;;;;2.60;0.70;;;21.90;94.30;;;;;;5128349;27;20061;-80
2022/07/03 12:42:44;;;;;;;1.67;1.10;;;22.10;94.30;;;;;;5122915;27;20035;-82
2022/07/03 12:45:12;;;;;;;1.10;0.82;;;22.20;94.10;;;;;;5127065;27;20558;-83
2022/07/03 12:47:38;;;;;;;0.77;0.50;;;22.10;93.80;;;;;;5128478;27;20046;-83
2022/07/03 12:50:07;;;;;;;1.20;0.85;;;21.90;93.70;;;;;;5124155;27;20055;-83
2022/07/03 12:52:34;;;;;;;0.98;0.70;;;21.90;93.70;;;;;;5125955;27;20036;-84
2022/07/03 12:55:01;;;;;;;1.45;0.80;;;21.80;93.70;;;;;;5125671;27;20044;-84
2022/07/03 13:00:16;;;;;;;1.15;0.70;;;21.60;93.40;;;;;;5127388;27;20047;-83
2022/07/03 13:02:44;;;;;;;1.00;0.68;;;21.50;93.30;;;;;;5124287;27;20032;-82
2022/07/03 13:05:23;;;;;;;2.03;0.68;;;21.50;93.20;;;;;;5123371;27;20039;-81
2022/07/03 13:07:51;;;;;;;0.93;0.57;;;21.50;93.00;;;;;;5123968;27;20043;-86
2022/07/03 13:10:18;;;;;;;1.27;0.80;;;21.50;92.70;;;;;;5125965;27;20031;-84
2022/07/03 13:12:53;;;;;;;0.63;0.50;;;21.60;92.60;;;;;;5127015;27;20039;-84
2022/07/03 13:15:20;;;;;;;2.10;0.80;;;21.60;92.60;;;;;;5128600;27;20553;-84
2022/07/03 13:17:54;;;;;;;1.30;1.20;;;21.60;92.50;;;;;;5127691;27;20043;-82